This is the latest recevied weather packets stored in our database for station/object F4IEI-10. If no packets are shown the sender has not sent any weather packets the latest 10 day(s).
| Time | Temp. | Humidity | Pressure | Rain* | Wind** | Luminosity | Snow |
|---|---|---|---|---|---|---|---|
| 1777660110 | 17.78° C | 65% | 1020.3 hPa | - | - | - | - |
| 1777659210 | 17.78° C | 67% | 1020.4 hPa | - | - | - | - |
| 1777658310 | 20.56° C | 67% | 1019.8 hPa | - | - | - | - |
| 1777657410 | 21.67° C | 53% | 1019.2 hPa | - | - | - | - |
| 1777656509 | 22.78° C | 51% | 1019.1 hPa | - | - | - | - |
| 1777655609 | 24.44° C | 50% | 1019 hPa | - | - | - | - |
| 1777654709 | 24.44° C | 49% | 1018.9 hPa | - | - | - | - |
| 1777653809 | 25° C | 46% | 1018.9 hPa | - | - | - | - |
| 1777652914 | 25.56° C | 46% | 1019 hPa | - | - | - | - |
| 1777652012 | 26.67° C | 47% | 1019.3 hPa | - | - | - | - |
| 1777651112 | 26.11° C | 47% | 1019.5 hPa | - | - | - | - |
| 1777650212 | 26.67° C | 47% | 1019.6 hPa | - | - | - | - |
| 1777649312 | 26.67° C | 47% | 1019.7 hPa | - | - | - | - |
| 1777648412 | 27.22° C | 46% | 1020 hPa | - | - | - | - |
| 1777647512 | 26.11° C | 47% | 1020.2 hPa | - | - | - | - |
| 1777646612 | 26.67° C | 46% | 1020.2 hPa | - | - | - | - |
| 1777645712 | 26.67° C | 49% | 1020.3 hPa | - | - | - | - |
| 1777644812 | 26.11° C | 48% | 1020.4 hPa | - | - | - | - |
| 1777643912 | 26.11° C | 48% | 1020.5 hPa | - | - | - | - |
| 1777643012 | 25.56° C | 49% | 1020.6 hPa | - | - | - | - |
| 1777642112 | 25° C | 49% | 1020.8 hPa | - | - | - | - |
| 1777641212 | 25° C | 48% | 1020.9 hPa | - | - | - | - |
| 1777640312 | 24.44° C | 48% | 1021 hPa | - | - | - | - |
| 1777639412 | 24.44° C | 48% | 1021 hPa | - | - | - | - |
| 1777638512 | 23.89° C | 48% | 1021.1 hPa | - | - | - | - |
* Rain since midnight (hover to see other rain measurements)
** Current wind speed in m/s (hover to see current wind gust speed)